Hovedside
METAR-TAF:

METAR-TAF

Lufthavner :

Oljeplattform

D15-fa-1, Nederland

breddegrad: 54-19-32N, lengdegrad: 2-56-09E, høyde over havet: 36 m

Gjeldene værobservasjon

Denne rapporten ble laget for 44 minutter siden, klokken 20:25 UTC
Vind 38 kt fra Sør-sørøst
Temperatur 7°C
Luftfuktighet 93%
Trykk 977 hPa
Sikt 10 km eller mer
duskregn

METAR: EHDV 122025Z AUTO 16038KT 9999 DZ FEW005/// SCT007/// BKN010/// 07/06 Q0977

Tid: 22:09 (21:09 UTC)


TAF: fraværende

Værobservasjoner og værvarsel for over 4000 flyplasser (METAR- og TAF-rapporter).

Tilgjengelige stasjoner er representert av de røde og gule prikkene på kartet.

Hold musepekeren over prikken for å se navnet på stasjonen.

Klikk så for å se værobservasjoner og -varsler.

For å forandre kartet kan du klikke på den grønne knappen med svart kryss for å zoome inn, på den grønne knappen med strek for å zoome ut, eller på de grønne pilene for å se tilstøtende kart.


METAR-TAF: